Hartford, MI

10:59 AM EDT on July 04, 2015 (GMT -0400)
MesoWest | | Change Station
CLOSE
Current Station
Personal Weather Station
Location: Hartford, MI
Elevation: 663 ft
Nearby Weather Stations

Elev 663 ft 42.23 °N, 86.16 °W | Updated 59 minutes ago

Clear
Clear
67.0 °F
Feels Like 67.0 °F
N
1.0
Wind Variable Wind from SSW
Gusts 0.0 mph

Today
High -- | Low -- °F
--% Chance of Precip.
Yesterday
High -- | Low -- °F
Precip. -- in
6:13 AM 9:24 PM
Waning Gibbous, 92% visible
Pressure 30.00 in
Visibility 10.0 miles
Clouds Clear
Dew Point 57.0 °F
Humidity 70%
Rainfall in
Snow Depth Not available.
UV 7 out of 12
Pollen 3.30 out of 12
Air Quality Not available.
Flu Activity Not available.
METAR KLWA 041455Z AUTO 00000KT 10SM CLR 22/14 A3000 RMK AO2 T02210136

More Conditions Fewer Conditions

Pressure 30.00 in
Visibility 10.0 miles
Clouds Clear
Dew Point 57.0 °F
Humidity 70%
Rainfall in
Snow Depth Not available.
UV 7 out of 12
Pollen 3.30 out of 12
Air Quality Not available.
Flu Activity Not available.
METAR KLWA 041455Z AUTO 00000KT 10SM CLR 22/14 A3000 RMK AO2 T02210136

More Conditions Fewer Conditions

10-Day Weather Forecast

×

Almanac

Astronomy

Jul. 04, 2015 Rise Set
Actual Time
Civil Twilight
Nautical Twilight
Astronomical Twilight
Moon
Length of Visible Light
Length of Day
Tomorrow will be .
, % of the Moon is Illuminated

Today's Extremes

State Highs State Lows

Community

WunderPhotos

Upload Photos

1,834,982 photos uploaded!

WunderBlogs® & News

Nearby

Air Quality

  Air Quality AQ Index Pollutant
Not available.

Snow Depth

Station Depth Elevation

Earthquake Activity

City Distance Mag. Time & Date
Minimum magnitude displayed is 2.5.

Coastal Water Temperatures

Place Temperature

Stations

Nearby Weather Stations

Station Location Temp. Windchill Dew Point Humidity Wind Precip. Elev Updated Type